createdAt,value
2022-12-18T00:02:14.727Z,59.20
2022-12-18T00:05:18.764Z,60.05
2022-12-18T00:08:22.914Z,59.04
2022-12-18T00:11:26.669Z,59.64
2022-12-18T00:14:30.648Z,59.89
2022-12-18T00:17:34.837Z,59.61
2022-12-18T00:20:38.815Z,59.97
2022-12-18T00:23:43.297Z,58.68
2022-12-18T00:26:47.505Z,60.37
2022-12-18T00:29:53.110Z,61.48
2022-12-18T00:32:57.305Z,63.20
2022-12-18T00:36:01.412Z,62.36
2022-12-18T00:39:05.277Z,60.70
2022-12-18T00:42:09.913Z,61.02
2022-12-18T00:45:14.144Z,60.89
2022-12-18T00:48:17.943Z,60.73
2022-12-18T00:51:21.937Z,61.72
2022-12-18T00:54:25.899Z,60.51
2022-12-18T00:57:30.420Z,60.59
2022-12-18T01:00:34.478Z,59.19
2022-12-18T01:03:38.643Z,60.32
2022-12-18T01:06:42.868Z,60.61
2022-12-18T01:09:46.914Z,59.72
2022-12-18T01:12:50.761Z,59.34
2022-12-18T01:15:54.608Z,61.99
2022-12-18T01:18:58.650Z,60.63
2022-12-18T01:22:02.411Z,60.26
2022-12-18T01:25:06.659Z,59.80
2022-12-18T01:28:10.757Z,59.98
2022-12-18T01:31:14.558Z,61.24
2022-12-18T01:34:18.356Z,60.71
2022-12-18T01:37:22.533Z,59.89
2022-12-18T01:40:27.318Z,60.40
2022-12-18T01:43:31.928Z,60.33
2022-12-18T01:46:36.069Z,59.62
2022-12-18T01:49:40.037Z,60.54
2022-12-18T01:52:44.207Z,60.61
2022-12-18T01:55:48.403Z,60.47
2022-12-18T01:58:52.531Z,60.56
2022-12-18T02:01:57.475Z,60.53
2022-12-18T02:05:01.836Z,60.32
2022-12-18T02:08:05.584Z,60.21
2022-12-18T02:11:09.587Z,59.70
2022-12-18T02:14:13.666Z,60.09
2022-12-18T02:17:17.608Z,61.06
2022-12-18T02:20:21.607Z,62.14
2022-12-18T02:23:25.810Z,61.80
2022-12-18T02:26:29.878Z,60.94
2022-12-18T02:29:33.864Z,61.66
2022-12-18T02:32:37.711Z,61.91
2022-12-18T02:35:41.857Z,60.22
2022-12-18T02:38:46.120Z,61.22
2022-12-18T02:41:50.264Z,61.02
2022-12-18T02:44:54.187Z,60.87
2022-12-18T02:47:58.246Z,61.24
2022-12-18T02:51:02.586Z,61.66
2022-12-18T02:54:06.615Z,60.75
2022-12-18T02:57:10.680Z,62.14
2022-12-18T03:00:14.571Z,62.54
2022-12-18T03:03:18.703Z,62.57
2022-12-18T03:06:23.806Z,62.18
2022-12-18T03:09:27.875Z,62.04
2022-12-18T03:12:32.123Z,63.32
2022-12-18T03:15:35.710Z,63.14
2022-12-18T03:18:39.842Z,61.99
2022-12-18T03:21:43.880Z,62.76
2022-12-18T03:24:47.871Z,63.74
2022-12-18T03:27:51.797Z,62.50
2022-12-18T03:30:55.704Z,63.03
2022-12-18T03:34:00.024Z,62.09
2022-12-18T03:37:04.114Z,61.90
2022-12-18T03:40:08.217Z,62.28
2022-12-18T03:43:12.138Z,62.57
2022-12-18T03:46:16.387Z,61.00
2022-12-18T03:49:20.276Z,61.27
2022-12-18T03:52:24.332Z,62.04
2022-12-18T03:55:28.023Z,62.07
2022-12-18T03:58:32.112Z,62.29
2022-12-18T04:01:36.435Z,62.14
2022-12-18T04:04:40.272Z,61.15
2022-12-18T04:07:44.216Z,61.60
2022-12-18T04:10:47.799Z,62.34
2022-12-18T04:13:51.952Z,62.21
2022-12-18T04:16:55.674Z,61.64
2022-12-18T04:20:01.634Z,62.21
2022-12-18T04:23:05.665Z,61.01
2022-12-18T04:26:09.644Z,60.61
2022-12-18T04:29:14.179Z,60.54
2022-12-18T04:32:18.382Z,61.23
2022-12-18T04:35:22.280Z,60.90
2022-12-18T04:38:26.183Z,62.30
2022-12-18T04:41:29.743Z,62.60
2022-12-18T04:44:33.910Z,62.42
2022-12-18T04:47:37.958Z,61.01
2022-12-18T04:50:41.667Z,62.71
2022-12-18T04:53:45.172Z,60.39
2022-12-18T04:56:49.335Z,60.44
2022-12-18T04:59:53.184Z,61.30
2022-12-18T05:02:57.195Z,61.92
2022-12-18T05:06:00.974Z,62.05
2022-12-18T05:09:04.903Z,62.33
2022-12-18T05:12:10.100Z,62.39
2022-12-18T05:15:14.075Z,61.77
2022-12-18T05:18:18.050Z,62.89
2022-12-18T05:21:22.078Z,62.11
2022-12-18T05:24:25.953Z,62.82
2022-12-18T05:27:30.333Z,61.81
2022-12-18T05:30:34.372Z,61.29
2022-12-18T05:33:38.301Z,61.97
2022-12-18T05:36:42.435Z,61.04
2022-12-18T05:39:46.712Z,61.41
2022-12-18T05:42:51.010Z,62.66
2022-12-18T05:45:54.887Z,61.59
2022-12-18T05:48:58.798Z,61.34
2022-12-18T05:52:02.903Z,61.46
2022-12-18T05:55:06.730Z,61.94
2022-12-18T05:58:10.774Z,62.24
2022-12-18T06:01:14.886Z,61.79
2022-12-18T06:04:18.815Z,61.46
2022-12-18T06:07:23.006Z,61.10
2022-12-18T06:10:26.768Z,60.17
2022-12-18T06:13:31.058Z,59.76
2022-12-18T06:16:35.030Z,61.62
2022-12-18T06:19:38.964Z,62.01
2022-12-18T06:22:43.022Z,62.33
2022-12-18T06:25:47.160Z,61.66
2022-12-18T06:28:50.991Z,60.81
2022-12-18T06:31:55.300Z,62.12
2022-12-18T06:34:59.196Z,62.93
2022-12-18T06:38:03.216Z,61.94
2022-12-18T06:41:07.211Z,60.95
2022-12-18T06:44:10.936Z,60.50
2022-12-18T06:47:15.670Z,60.18
2022-12-18T06:50:19.996Z,59.76
2022-12-18T06:53:24.317Z,59.23
2022-12-18T06:56:28.091Z,60.20
2022-12-18T06:59:32.094Z,59.95
2022-12-18T07:02:36.255Z,59.78
2022-12-18T07:05:40.058Z,60.68
2022-12-18T07:08:44.036Z,60.24
2022-12-18T07:11:47.987Z,60.00
2022-12-18T07:14:51.937Z,60.89
2022-12-18T07:17:57.080Z,59.76
2022-12-18T07:21:00.918Z,59.54
2022-12-18T07:24:04.972Z,60.27
2022-12-18T07:27:08.957Z,60.44
2022-12-18T07:30:14.202Z,59.80
2022-12-18T07:33:18.289Z,61.30
2022-12-18T07:36:22.292Z,61.06
2022-12-18T07:39:28.421Z,59.47
2022-12-18T07:42:32.464Z,58.91
2022-12-18T07:45:36.516Z,59.43
2022-12-18T07:48:40.574Z,60.21
2022-12-18T07:51:44.893Z,59.63
2022-12-18T07:54:48.633Z,57.76
2022-12-18T07:57:55.400Z,58.09
2022-12-18T08:01:03.577Z,58.68
2022-12-18T08:04:07.262Z,59.41
2022-12-18T08:07:11.269Z,62.73
2022-12-18T08:10:15.302Z,62.62
2022-12-18T08:13:19.233Z,60.81
2022-12-18T08:16:23.241Z,60.03
2022-12-18T08:19:27.239Z,60.41
2022-12-18T08:22:31.711Z,60.02
2022-12-18T08:25:35.604Z,59.62
2022-12-18T08:28:39.887Z,60.49
2022-12-18T08:31:43.857Z,58.82
2022-12-18T08:34:48.516Z,58.39
2022-12-18T08:37:56.881Z,59.07
2022-12-18T08:41:01.000Z,60.49
2022-12-18T08:44:05.469Z,58.76
2022-12-18T08:47:10.645Z,59.17
2022-12-18T08:50:14.776Z,60.23
2022-12-18T08:53:18.614Z,60.08
2022-12-18T08:56:23.009Z,59.25
2022-12-18T08:59:27.093Z,60.10
2022-12-18T09:02:31.294Z,59.32
2022-12-18T09:05:35.424Z,59.59
2022-12-18T09:08:39.797Z,58.51
2022-12-18T09:11:44.042Z,59.04
2022-12-18T09:14:47.943Z,58.14
2022-12-18T09:17:51.878Z,59.67
2022-12-18T09:20:55.692Z,59.10
2022-12-18T09:23:59.634Z,58.19
2022-12-18T09:27:03.544Z,58.28
2022-12-18T09:30:07.359Z,58.69
2022-12-18T09:33:11.343Z,57.78
2022-12-18T09:36:15.305Z,57.51
2022-12-18T09:39:19.244Z,57.43
2022-12-18T09:42:27.171Z,58.11
2022-12-18T09:45:31.096Z,58.46
2022-12-18T09:48:34.850Z,60.53
2022-12-18T09:51:38.977Z,59.75
2022-12-18T09:54:42.986Z,58.49
2022-12-18T09:57:47.019Z,58.87
2022-12-18T10:00:50.944Z,58.08
2022-12-18T10:03:55.130Z,58.24
2022-12-18T10:07:04.320Z,58.06
2022-12-18T10:10:11.320Z,57.95
2022-12-18T10:13:15.076Z,56.66
2022-12-18T10:16:21.058Z,57.20
2022-12-18T10:19:25.137Z,56.29
2022-12-18T10:22:29.035Z,55.73
2022-12-18T10:25:33.155Z,57.49
2022-12-18T10:28:37.249Z,56.58
2022-12-18T10:31:41.455Z,57.93
2022-12-18T10:34:49.501Z,57.55
2022-12-18T10:37:57.661Z,57.79
2022-12-18T10:41:02.020Z,57.23
2022-12-18T10:44:06.155Z,58.36
2022-12-18T10:47:11.922Z,58.37
2022-12-18T10:50:16.045Z,58.91
2022-12-18T10:53:19.807Z,59.17
2022-12-18T10:56:25.014Z,58.31
2022-12-18T10:59:28.953Z,58.58
2022-12-18T11:02:32.969Z,57.94
2022-12-18T11:05:36.830Z,59.03
2022-12-18T11:08:41.356Z,57.62
2022-12-18T11:11:45.643Z,56.75
2022-12-18T11:14:50.756Z,58.54
2022-12-18T11:17:54.786Z,59.35
2022-12-18T11:20:59.116Z,59.24
2022-12-18T11:24:03.189Z,58.12
2022-12-18T11:27:07.185Z,58.94
2022-12-18T11:30:10.892Z,58.96
2022-12-18T11:33:14.872Z,58.53
2022-12-18T11:36:18.648Z,58.67
2022-12-18T11:39:22.695Z,58.82
2022-12-18T11:42:27.314Z,59.15
2022-12-18T11:45:30.842Z,58.61
2022-12-18T11:48:34.695Z,58.45
2022-12-18T11:51:38.407Z,58.90
2022-12-18T11:54:42.319Z,58.71
2022-12-18T11:57:46.729Z,58.34
2022-12-18T12:00:50.715Z,58.06
2022-12-18T12:03:54.729Z,57.58
2022-12-18T12:07:03.133Z,58.14
2022-12-18T12:10:07.818Z,59.74
2022-12-18T12:13:11.859Z,61.36
2022-12-18T12:16:15.820Z,58.62
2022-12-18T12:19:25.874Z,59.39
2022-12-18T12:22:29.613Z,57.17
2022-12-18T12:25:33.537Z,59.56
2022-12-18T12:28:37.664Z,59.15
2022-12-18T12:31:42.093Z,58.62
2022-12-18T12:34:51.704Z,59.60
2022-12-18T12:37:57.861Z,57.69
2022-12-18T12:41:03.410Z,59.89
2022-12-18T12:44:08.534Z,60.17
2022-12-18T12:47:12.524Z,60.00
2022-12-18T12:50:17.359Z,59.96
2022-12-18T12:53:21.158Z,60.63
2022-12-18T12:56:25.842Z,62.26
2022-12-18T12:59:33.022Z,59.21
2022-12-18T13:02:38.817Z,60.16
2022-12-18T13:05:43.240Z,61.37
2022-12-18T13:08:47.460Z,58.40
2022-12-18T13:11:57.871Z,60.49
2022-12-18T13:15:08.755Z,59.78
2022-12-18T13:18:15.565Z,59.48
2022-12-18T13:21:20.087Z,58.41
2022-12-18T13:24:25.022Z,59.72
2022-12-18T13:27:28.988Z,59.80
2022-12-18T13:30:33.537Z,59.43
2022-12-18T13:33:50.766Z,58.38
2022-12-18T13:37:01.642Z,60.63
2022-12-18T13:40:05.870Z,59.38
2022-12-18T13:43:10.021Z,59.64
2022-12-18T13:46:14.139Z,57.48
2022-12-18T13:49:19.906Z,59.04
2022-12-18T13:52:23.945Z,59.71
2022-12-18T13:55:28.074Z,58.08
2022-12-18T13:58:32.010Z,57.25
2022-12-18T14:01:36.040Z,59.28
2022-12-18T14:04:39.972Z,57.32
2022-12-18T14:07:46.530Z,57.80
2022-12-18T14:10:55.228Z,56.54
2022-12-18T14:13:59.367Z,57.20
2022-12-18T14:17:03.209Z,57.12
2022-12-18T14:20:07.116Z,57.34
2022-12-18T14:23:11.216Z,56.64
2022-12-18T14:26:15.346Z,57.27
2022-12-18T14:29:19.266Z,57.77
2022-12-18T14:32:23.657Z,58.81
2022-12-18T14:35:27.739Z,58.19
2022-12-18T14:38:32.372Z,58.71
2022-12-18T14:41:36.226Z,59.45
2022-12-18T14:45:05.013Z,59.81
2022-12-18T14:48:03.736Z,59.19
2022-12-18T14:51:07.557Z,59.40
2022-12-18T14:54:11.570Z,59.95
2022-12-18T14:57:15.723Z,59.58
2022-12-18T15:00:20.975Z,59.02
2022-12-18T15:03:24.849Z,59.39
2022-12-18T15:06:30.080Z,59.50
2022-12-18T15:09:34.233Z,60.95
2022-12-18T15:12:38.111Z,59.65
2022-12-18T15:15:42.398Z,59.79
2022-12-18T15:18:46.265Z,59.09
2022-12-18T15:21:50.347Z,60.22
2022-12-18T15:24:54.284Z,59.18
2022-12-18T15:27:58.383Z,59.99
2022-12-18T15:31:02.458Z,59.98
2022-12-18T15:34:06.332Z,59.25
2022-12-18T15:37:10.667Z,59.58
2022-12-18T15:40:14.624Z,59.95
2022-12-18T15:43:19.745Z,59.46
2022-12-18T15:46:23.784Z,60.59
2022-12-18T15:49:27.553Z,60.08
2022-12-18T15:52:31.687Z,61.56
2022-12-18T15:55:35.769Z,60.62
2022-12-18T15:58:40.322Z,60.28
2022-12-18T16:01:44.065Z,61.58
2022-12-18T16:04:48.008Z,60.75
2022-12-18T16:07:52.101Z,61.40
2022-12-18T16:10:56.178Z,62.24
2022-12-18T16:14:00.368Z,61.87
2022-12-18T16:17:04.102Z,61.27
2022-12-18T16:20:08.257Z,61.33
2022-12-18T16:23:12.469Z,60.88
2022-12-18T16:26:16.507Z,61.82
2022-12-18T16:29:20.654Z,61.97
2022-12-18T16:32:24.811Z,62.53
2022-12-18T16:35:28.646Z,64.01
2022-12-18T16:38:32.996Z,65.36
2022-12-18T16:41:37.088Z,65.50
2022-12-18T16:44:40.989Z,64.48
2022-12-18T16:47:45.124Z,62.92
2022-12-18T16:50:49.103Z,61.89
2022-12-18T16:53:53.282Z,61.90
2022-12-18T16:56:57.303Z,61.32
2022-12-18T17:00:05.442Z,60.93
2022-12-18T17:03:09.760Z,60.95
2022-12-18T17:06:13.478Z,61.49
2022-12-18T17:09:17.760Z,60.90
2022-12-18T17:12:21.934Z,61.26
2022-12-18T17:15:25.899Z,60.85
2022-12-18T17:18:30.015Z,59.92
2022-12-18T17:21:34.016Z,60.29
2022-12-18T17:24:38.124Z,60.96
2022-12-18T17:27:42.143Z,61.60
2022-12-18T17:30:46.091Z,61.23
2022-12-18T17:33:50.096Z,64.69
2022-12-18T17:36:54.041Z,63.11
2022-12-18T17:39:58.168Z,63.22
2022-12-18T17:43:02.126Z,62.44
2022-12-18T17:46:06.185Z,60.42
2022-12-18T17:49:13.333Z,60.39
2022-12-18T17:52:17.322Z,60.23
2022-12-18T17:55:21.351Z,60.20
2022-12-18T17:58:25.357Z,62.64
2022-12-18T18:01:29.406Z,62.70
2022-12-18T18:04:33.317Z,62.67
2022-12-18T18:07:37.350Z,62.21
2022-12-18T18:10:41.235Z,63.79
2022-12-18T18:13:47.164Z,64.02
2022-12-18T18:16:51.171Z,63.92
2022-12-18T18:19:55.324Z,65.61
2022-12-18T18:22:59.482Z,65.49
2022-12-18T18:26:03.452Z,65.73
2022-12-18T18:29:07.983Z,64.64
2022-12-18T18:32:12.608Z,66.32
2022-12-18T18:35:45.131Z,65.88
2022-12-18T18:38:44.121Z,63.64
2022-12-18T18:41:51.027Z,63.50
2022-12-18T18:44:54.960Z,62.58
2022-12-18T18:47:59.687Z,62.65
2022-12-18T18:51:03.800Z,61.69
2022-12-18T18:54:07.875Z,61.85
2022-12-18T18:57:20.399Z,61.69
2022-12-18T19:00:24.386Z,61.42
2022-12-18T19:03:28.420Z,62.27
2022-12-18T19:06:32.362Z,61.86
2022-12-18T19:09:37.394Z,62.33
2022-12-18T19:12:41.364Z,61.72
2022-12-18T19:15:45.364Z,61.31
2022-12-18T19:18:49.353Z,60.94
2022-12-18T19:21:53.274Z,60.47
2022-12-18T19:24:57.375Z,61.96
2022-12-18T19:28:01.464Z,61.52
2022-12-18T19:31:05.359Z,61.46
2022-12-18T19:34:09.360Z,61.29
2022-12-18T19:37:13.514Z,60.78
2022-12-18T19:40:17.659Z,61.96
2022-12-18T19:43:21.728Z,62.20
2022-12-18T19:46:25.810Z,63.20
2022-12-18T19:49:29.746Z,63.15
2022-12-18T19:52:34.323Z,62.48
2022-12-18T19:55:38.409Z,63.92
2022-12-18T19:58:42.910Z,63.46
2022-12-18T20:01:47.182Z,61.95
2022-12-18T20:04:51.332Z,61.91
2022-12-18T20:07:55.373Z,61.25
2022-12-18T20:10:59.255Z,60.46
2022-12-18T20:14:03.020Z,61.60
2022-12-18T20:17:06.960Z,61.49
2022-12-18T20:20:11.072Z,62.13
2022-12-18T20:23:15.271Z,63.10
2022-12-18T20:26:19.421Z,61.16
2022-12-18T20:29:23.340Z,61.27
2022-12-18T20:32:27.328Z,61.58
2022-12-18T20:35:33.571Z,61.03
2022-12-18T20:38:37.658Z,61.15
2022-12-18T20:41:41.674Z,62.39
2022-12-18T20:44:45.540Z,63.04
2022-12-18T20:47:49.670Z,65.13
2022-12-18T20:50:53.626Z,63.95
2022-12-18T20:53:57.787Z,64.46
2022-12-18T20:57:01.835Z,63.34
2022-12-18T21:00:05.657Z,62.50
2022-12-18T21:03:09.842Z,61.93
2022-12-18T21:06:14.126Z,62.10
2022-12-18T21:09:17.997Z,64.39
2022-12-18T21:12:21.987Z,63.67
2022-12-18T21:15:28.790Z,63.96
2022-12-18T21:18:33.067Z,64.80
2022-12-18T21:21:38.710Z,63.68
2022-12-18T21:24:43.379Z,62.69
2022-12-18T21:27:47.369Z,62.88
2022-12-18T21:30:51.259Z,63.17
2022-12-18T21:33:55.852Z,62.92
2022-12-18T21:37:05.876Z,62.31
2022-12-18T21:40:09.993Z,62.37
2022-12-18T21:43:16.074Z,62.24
2022-12-18T21:46:21.959Z,62.79
2022-12-18T21:49:26.004Z,62.19
2022-12-18T21:52:32.053Z,62.43
2022-12-18T21:55:38.037Z,62.48
2022-12-18T21:58:56.637Z,62.22
2022-12-18T22:02:01.375Z,64.47
2022-12-18T22:05:05.396Z,63.06
2022-12-18T22:08:09.942Z,62.85
2022-12-18T22:11:13.866Z,63.05
2022-12-18T22:14:18.734Z,65.33
2022-12-18T22:17:22.728Z,64.48
2022-12-18T22:20:26.913Z,64.44
2022-12-18T22:23:31.004Z,64.26
2022-12-18T22:26:39.455Z,63.83
2022-12-18T22:29:43.925Z,64.17
2022-12-18T22:32:47.950Z,66.01
2022-12-18T22:35:51.864Z,64.50
2022-12-18T22:38:56.131Z,63.46
2022-12-18T22:42:00.159Z,62.85
2022-12-18T22:45:04.008Z,62.38
2022-12-18T22:48:07.906Z,62.58
2022-12-18T22:51:11.811Z,62.31
2022-12-18T22:54:15.814Z,62.91
2022-12-18T22:57:21.951Z,64.15
2022-12-18T23:00:25.544Z,63.26
2022-12-18T23:03:29.667Z,62.30
2022-12-18T23:06:33.643Z,62.53
2022-12-18T23:09:37.749Z,61.82
2022-12-18T23:12:41.792Z,61.83
2022-12-18T23:15:45.732Z,61.73
2022-12-18T23:18:50.032Z,61.47
2022-12-18T23:21:54.885Z,61.15
2022-12-18T23:25:01.226Z,62.43
2022-12-18T23:28:05.234Z,61.40
2022-12-18T23:31:09.137Z,61.53
2022-12-18T23:34:13.019Z,61.78
2022-12-18T23:37:35.296Z,62.47
2022-12-18T23:40:40.958Z,63.37
2022-12-18T23:43:44.874Z,63.95
2022-12-18T23:46:50.862Z,64.70
2022-12-18T23:49:54.977Z,65.21
2022-12-18T23:53:05.014Z,64.85
2022-12-18T23:56:09.687Z,63.68
2022-12-18T23:59:14.065Z,63.74
